createdAt,value
2018-10-12T00:02:18.646Z,4.55
2018-10-12T00:04:47.153Z,2.47
2018-10-12T00:07:15.585Z,2.80
2018-10-12T00:09:44.001Z,3.45
2018-10-12T00:12:12.440Z,3.05
2018-10-12T00:14:40.889Z,4.80
2018-10-12T00:17:09.356Z,3.87
2018-10-12T00:19:37.453Z,3.60
2018-10-12T00:22:05.936Z,2.60
2018-10-12T00:24:34.377Z,3.75
2018-10-12T00:27:02.820Z,2.85
2018-10-12T00:29:31.286Z,3.02
2018-10-12T00:31:59.713Z,3.20
2018-10-12T00:34:28.121Z,3.77
2018-10-12T00:36:56.572Z,4.15
2018-10-12T00:39:25.153Z,3.55
2018-10-12T00:41:53.577Z,3.40
2018-10-12T00:44:22.016Z,2.72
2018-10-12T00:46:50.461Z,2.70
2018-10-12T00:49:18.857Z,3.65
2018-10-12T00:51:47.286Z,5.42
2018-10-12T00:54:15.740Z,3.37
2018-10-12T00:56:44.169Z,2.95
2018-10-12T00:59:12.608Z,3.85
2018-10-12T01:01:41.018Z,3.00
2018-10-12T01:04:09.768Z,3.95
2018-10-12T01:06:38.388Z,4.72
2018-10-12T01:09:07.426Z,3.22
2018-10-12T01:11:35.853Z,3.75
2018-10-12T01:14:04.383Z,6.08
2018-10-12T01:16:32.848Z,3.08
2018-10-12T01:19:01.316Z,2.77
2018-10-12T01:21:29.810Z,4.03
2018-10-12T01:23:58.322Z,5.00
2018-10-12T01:26:26.994Z,2.40
2018-10-12T01:28:56.791Z,3.10
2018-10-12T01:31:26.260Z,5.45
2018-10-12T01:33:54.976Z,2.30
2018-10-12T01:36:23.675Z,2.10
2018-10-12T01:38:52.131Z,2.83
2018-10-12T01:41:20.584Z,3.65
2018-10-12T01:43:49.065Z,2.33
2018-10-12T01:46:17.476Z,2.87
2018-10-12T01:48:46.083Z,2.62
2018-10-12T01:51:14.532Z,2.95
2018-10-12T01:53:42.998Z,3.33
2018-10-12T01:56:11.398Z,3.70
2018-10-12T01:58:39.816Z,2.52
2018-10-12T02:01:07.965Z,4.67
2018-10-12T02:03:36.451Z,4.10
2018-10-12T02:06:04.935Z,2.80
2018-10-12T02:08:33.397Z,3.20
2018-10-12T02:11:01.809Z,3.30
2018-10-12T02:13:30.282Z,4.70
2018-10-12T02:15:58.708Z,3.08
2018-10-12T02:18:27.219Z,4.53
2018-10-12T02:20:55.661Z,4.30
2018-10-12T02:23:24.092Z,3.17
2018-10-12T02:25:52.526Z,3.15
2018-10-12T02:28:20.961Z,2.92
2018-10-12T02:30:49.393Z,2.70
2018-10-12T02:33:17.831Z,2.80
2018-10-12T02:35:46.249Z,3.60
2018-10-12T02:38:14.717Z,2.80
2018-10-12T02:40:43.134Z,2.83
2018-10-12T02:43:11.516Z,2.92
2018-10-12T02:45:39.928Z,2.75
2018-10-12T02:48:08.336Z,3.80
2018-10-12T02:50:36.782Z,3.70
2018-10-12T02:53:05.467Z,2.58
2018-10-12T02:55:33.992Z,3.77
2018-10-12T02:58:02.401Z,3.33
2018-10-12T03:00:30.843Z,3.25
2018-10-12T03:02:59.291Z,4.50
2018-10-12T03:05:27.876Z,4.45
2018-10-12T03:07:56.364Z,3.47
2018-10-12T03:10:24.796Z,3.35
2018-10-12T03:12:53.199Z,4.97
2018-10-12T03:15:21.657Z,3.37
2018-10-12T03:17:50.075Z,3.85
2018-10-12T03:20:18.532Z,2.90
2018-10-12T03:22:46.933Z,4.67
2018-10-12T03:25:15.452Z,2.52
2018-10-12T03:27:55.398Z,3.58
2018-10-12T03:30:23.881Z,3.22
2018-10-12T03:32:52.386Z,3.45
2018-10-12T03:35:20.955Z,3.42
2018-10-12T03:37:49.401Z,4.15
2018-10-12T03:40:17.908Z,4.10
2018-10-12T03:42:46.366Z,2.85
2018-10-12T03:45:14.812Z,4.53
2018-10-12T03:47:43.228Z,3.95
2018-10-12T03:50:11.806Z,3.05
2018-10-12T03:52:39.938Z,3.50
2018-10-12T03:55:08.045Z,4.08
2018-10-12T03:57:36.616Z,2.90
2018-10-12T04:00:05.508Z,2.65
2018-10-12T04:02:33.956Z,3.47
2018-10-12T04:05:02.381Z,3.20
2018-10-12T04:07:30.783Z,3.42
2018-10-12T04:09:59.197Z,5.65
2018-10-12T04:12:27.869Z,3.50
2018-10-12T04:14:56.346Z,3.30
2018-10-12T04:17:24.959Z,9.05
2018-10-12T04:19:53.352Z,3.08
2018-10-12T04:22:24.680Z,3.30
2018-10-12T04:24:53.244Z,4.70
2018-10-12T04:27:22.957Z,5.22
2018-10-12T04:29:51.375Z,3.83
2018-10-12T04:32:19.849Z,2.75
2018-10-12T04:34:48.727Z,3.77
2018-10-12T04:37:17.393Z,5.35
2018-10-12T04:41:00.621Z,4.90
2018-10-12T04:43:29.393Z,4.20
2018-10-12T04:45:57.987Z,6.30
2018-10-12T04:48:26.473Z,3.55
2018-10-12T04:50:55.089Z,5.45
2018-10-12T04:53:23.828Z,4.08
2018-10-12T04:55:52.427Z,2.98
2018-10-12T04:58:20.899Z,4.17
2018-10-12T05:00:49.609Z,3.60
2018-10-12T05:03:18.249Z,3.70
2018-10-12T05:05:46.686Z,8.18
2018-10-12T05:08:15.133Z,5.80
2018-10-12T05:10:43.564Z,5.35
2018-10-12T05:13:12.037Z,4.28
2018-10-12T05:15:40.820Z,4.78
2018-10-12T05:18:09.252Z,3.27
2018-10-12T05:20:37.685Z,4.08
2018-10-12T05:23:06.129Z,5.05
2018-10-12T05:25:34.585Z,4.42
2018-10-12T05:28:03.036Z,7.20
2018-10-12T05:30:31.177Z,4.80
2018-10-12T05:32:59.616Z,6.00
2018-10-12T05:35:28.031Z,6.22
2018-10-12T05:37:56.504Z,5.83
2018-10-12T05:40:26.049Z,4.60
2018-10-12T05:42:54.596Z,7.00
2018-10-12T05:45:23.210Z,3.58
2018-10-12T05:47:51.398Z,3.95
2018-10-12T05:50:19.801Z,6.75
2018-10-12T05:52:48.355Z,4.05
2018-10-12T05:55:16.861Z,10.08
2018-10-12T05:57:45.383Z,5.58
2018-10-12T06:00:13.488Z,10.70
2018-10-12T06:02:41.975Z,7.65
2018-10-12T06:05:10.409Z,5.47
2018-10-12T06:07:38.833Z,5.22
2018-10-12T06:10:07.005Z,3.95
2018-10-12T06:12:35.156Z,4.40
2018-10-12T06:15:03.703Z,9.50
2018-10-12T06:17:32.101Z,4.58
2018-10-12T06:20:00.571Z,5.95
2018-10-12T06:22:29.034Z,4.70
2018-10-12T06:24:57.476Z,3.17
2018-10-12T06:27:25.873Z,5.78
2018-10-12T06:29:54.326Z,3.08
2018-10-12T06:32:22.745Z,4.00
2018-10-12T06:34:51.181Z,5.87
2018-10-12T06:37:19.585Z,2.47
2018-10-12T06:39:48.067Z,2.37
2018-10-12T06:42:16.644Z,5.25
2018-10-12T06:44:45.085Z,2.75
2018-10-12T06:47:13.456Z,3.15
2018-10-12T06:49:41.919Z,2.92
2018-10-12T06:52:10.353Z,4.97
2018-10-12T06:54:38.845Z,1.77
2018-10-12T06:57:07.281Z,3.40
2018-10-12T06:59:35.728Z,2.40
2018-10-12T07:02:04.250Z,3.47
2018-10-12T07:04:32.750Z,2.62
2018-10-12T07:07:01.247Z,4.17
2018-10-12T07:09:29.701Z,4.20
2018-10-12T07:11:58.145Z,3.22
2018-10-12T07:14:26.604Z,2.42
2018-10-12T07:16:55.032Z,2.08
2018-10-12T07:19:23.467Z,2.35
2018-10-12T07:21:51.909Z,2.60
2018-10-12T07:24:20.032Z,2.50
2018-10-12T07:26:48.130Z,2.22
2018-10-12T07:29:16.601Z,2.45
2018-10-12T07:31:45.013Z,3.55
2018-10-12T07:34:13.450Z,2.25
2018-10-12T07:36:41.935Z,2.22
2018-10-12T07:39:10.797Z,1.70
2018-10-12T07:41:39.194Z,2.05
2018-10-12T07:44:07.710Z,2.37
2018-10-12T07:46:36.207Z,2.77
2018-10-12T07:49:04.372Z,3.17
2018-10-12T07:51:32.855Z,2.40
2018-10-12T07:54:01.470Z,1.77
2018-10-12T07:56:29.884Z,1.82
2018-10-12T07:58:58.305Z,1.65
2018-10-12T08:01:26.823Z,1.95
2018-10-12T08:03:55.188Z,1.52
2018-10-12T08:06:23.842Z,1.60
2018-10-12T08:08:52.230Z,1.60
2018-10-12T08:11:20.665Z,2.30
2018-10-12T08:13:49.376Z,1.47
2018-10-12T08:16:17.740Z,2.87
2018-10-12T08:18:46.401Z,4.08
2018-10-12T08:21:14.869Z,2.17
2018-10-12T08:23:43.378Z,1.72
2018-10-12T08:26:11.859Z,2.15
2018-10-12T08:28:40.334Z,1.10
2018-10-12T08:31:08.777Z,2.15
2018-10-12T08:33:37.268Z,2.15
2018-10-12T08:36:05.910Z,5.80
2018-10-12T08:38:34.313Z,1.55
2018-10-12T08:41:02.745Z,1.77
2018-10-12T08:43:31.167Z,1.52
2018-10-12T08:45:59.611Z,1.12
2018-10-12T08:48:28.001Z,4.60
2018-10-12T08:50:56.495Z,2.45
2018-10-12T08:53:24.905Z,1.70
2018-10-12T08:55:53.317Z,1.20
2018-10-12T08:58:21.741Z,1.72
2018-10-12T09:00:50.181Z,1.62
2018-10-12T09:03:18.318Z,1.30
2018-10-12T09:05:46.746Z,1.15
2018-10-12T09:08:15.129Z,1.50
2018-10-12T09:10:43.565Z,2.22
2018-10-12T09:13:11.957Z,3.33
2018-10-12T09:15:40.444Z,1.05
2018-10-12T09:18:08.836Z,1.40
2018-10-12T09:20:37.308Z,1.47
2018-10-12T09:23:05.996Z,1.10
2018-10-12T09:25:34.467Z,1.50
2018-10-12T09:28:02.875Z,2.22
2018-10-12T09:30:31.333Z,1.50
2018-10-12T09:32:59.761Z,1.25
2018-10-12T09:35:28.194Z,2.33
2018-10-12T09:37:56.580Z,1.42
2018-10-12T09:40:25.012Z,2.08
2018-10-12T09:42:53.411Z,1.25
2018-10-12T09:45:21.873Z,2.05
2018-10-12T09:47:50.276Z,1.10
2018-10-12T09:50:18.730Z,3.42
2018-10-12T09:52:47.313Z,1.10
2018-10-12T09:55:15.732Z,1.72
2018-10-12T09:57:44.231Z,1.07
2018-10-12T10:00:17.978Z,2.30
2018-10-12T10:02:51.752Z,1.67
2018-10-12T10:05:19.906Z,1.40
2018-10-12T10:07:48.564Z,2.12
2018-10-12T10:10:16.931Z,1.05
2018-10-12T10:12:45.361Z,1.50
2018-10-12T10:15:13.785Z,2.25
2018-10-12T10:17:42.230Z,5.10
2018-10-12T10:20:10.800Z,2.27
2018-10-12T10:22:39.261Z,1.00
2018-10-12T10:25:07.759Z,1.95
2018-10-12T10:27:36.164Z,1.00
2018-10-12T10:30:04.336Z,0.88
2018-10-12T10:32:32.756Z,1.20
2018-10-12T10:35:01.149Z,1.72
2018-10-12T10:37:29.577Z,1.55
2018-10-12T10:39:58.039Z,1.87
2018-10-12T10:42:26.529Z,0.88
2018-10-12T10:44:54.929Z,1.22
2018-10-12T10:47:23.353Z,3.80
2018-10-12T10:49:51.511Z,1.85
2018-10-12T10:52:19.932Z,2.00
2018-10-12T10:54:48.334Z,5.28
2018-10-12T10:57:16.794Z,1.87
2018-10-12T10:59:45.218Z,2.50
2018-10-12T11:02:13.656Z,1.65
2018-10-12T11:04:42.097Z,3.40
2018-10-12T11:07:10.542Z,1.65
2018-10-12T11:09:38.970Z,1.67
2018-10-12T11:12:07.563Z,1.10
2018-10-12T11:14:35.952Z,2.87
2018-10-12T11:17:04.380Z,0.95
2018-10-12T11:19:32.499Z,3.60
2018-10-12T11:22:00.905Z,0.88
2018-10-12T11:24:29.378Z,1.92
2018-10-12T11:26:57.548Z,1.52
2018-10-12T11:29:25.845Z,1.07
2018-10-12T11:31:54.277Z,1.17
2018-10-12T11:34:22.961Z,1.02
2018-10-12T11:36:51.384Z,4.28
2018-10-12T11:39:19.508Z,1.57
2018-10-12T11:41:47.896Z,2.33
2018-10-12T11:44:16.016Z,2.72
2018-10-12T11:46:44.485Z,1.25
2018-10-12T11:49:12.943Z,1.00
2018-10-12T11:51:41.372Z,2.22
2018-10-12T11:54:09.484Z,1.70
2018-10-12T11:56:37.873Z,2.85
2018-10-12T11:59:06.296Z,0.90
2018-10-12T12:01:34.701Z,1.10
2018-10-12T12:04:03.152Z,1.80
2018-10-12T12:06:31.543Z,1.00
2018-10-12T12:09:00.003Z,2.87
2018-10-12T12:11:28.455Z,1.80
2018-10-12T12:13:56.690Z,1.47
2018-10-12T12:16:25.082Z,1.67
2018-10-12T12:18:53.531Z,1.67
2018-10-12T12:21:22.002Z,2.72
2018-10-12T12:23:50.432Z,2.22
2018-10-12T12:26:18.528Z,0.60
2018-10-12T12:28:46.951Z,0.70
2018-10-12T12:31:15.384Z,2.80
2018-10-12T12:33:43.808Z,1.67
2018-10-12T12:36:13.244Z,1.25
2018-10-12T12:38:41.688Z,4.20
2018-10-12T12:41:10.127Z,2.05
2018-10-12T12:43:38.602Z,1.52
2018-10-12T12:46:07.045Z,1.22
2018-10-12T12:48:35.875Z,3.65
2018-10-12T12:51:04.028Z,2.45
2018-10-12T12:53:32.174Z,1.17
2018-10-12T12:56:00.584Z,1.90
2018-10-12T12:58:29.014Z,1.50
2018-10-12T13:00:57.163Z,2.55
2018-10-12T13:03:25.572Z,0.70
2018-10-12T13:05:54.067Z,2.12
2018-10-12T13:08:22.531Z,2.33
2018-10-12T13:10:50.981Z,2.17
2018-10-12T13:13:19.788Z,1.40
2018-10-12T13:15:49.161Z,1.07
2018-10-12T13:18:17.641Z,1.17
2018-10-12T13:20:46.030Z,1.55
2018-10-12T13:23:14.476Z,0.72
2018-10-12T13:25:42.906Z,2.42
2018-10-12T13:28:11.351Z,2.87
2018-10-12T13:30:39.782Z,4.67
2018-10-12T13:33:08.210Z,1.67
2018-10-12T13:35:36.637Z,1.27
2018-10-12T13:38:05.107Z,1.98
2018-10-12T13:40:33.251Z,4.87
2018-10-12T13:43:01.644Z,1.05
2018-10-12T13:45:30.065Z,1.80
2018-10-12T13:47:58.485Z,1.57
2018-10-12T13:50:26.917Z,2.05
2018-10-12T13:52:55.312Z,3.62
2018-10-12T13:55:23.774Z,1.92
2018-10-12T13:57:52.143Z,0.90
2018-10-12T14:00:20.696Z,2.55
2018-10-12T14:02:49.178Z,2.20
2018-10-12T14:05:17.621Z,2.62
2018-10-12T14:07:46.028Z,1.00
2018-10-12T14:10:14.448Z,1.02
2018-10-12T14:12:42.852Z,1.57
2018-10-12T14:15:11.032Z,0.75
2018-10-12T14:17:39.479Z,2.85
2018-10-12T14:20:07.631Z,1.35
2018-10-12T14:22:36.091Z,0.70
2018-10-12T14:25:04.659Z,1.98
2018-10-12T14:27:33.143Z,3.52
2018-10-12T14:30:01.568Z,2.15
2018-10-12T14:32:29.994Z,3.52
2018-10-12T14:34:58.252Z,2.92
2018-10-12T14:37:26.706Z,1.55
2018-10-12T14:39:55.148Z,1.25
2018-10-12T14:42:23.559Z,0.85
2018-10-12T14:44:52.054Z,1.15
2018-10-12T14:47:20.479Z,3.10
2018-10-12T14:49:48.922Z,2.42
2018-10-12T14:52:17.324Z,0.98
2018-10-12T14:54:45.945Z,2.33
2018-10-12T14:57:19.017Z,2.55
2018-10-12T14:59:48.597Z,1.57
2018-10-12T15:02:17.462Z,2.55
2018-10-12T15:04:45.936Z,4.83
2018-10-12T15:07:14.377Z,4.10
2018-10-12T15:09:42.521Z,0.85
2018-10-12T15:12:11.149Z,0.95
2018-10-12T15:14:50.797Z,1.37
2018-10-12T15:17:19.459Z,0.88
2018-10-12T15:19:47.920Z,2.55
2018-10-12T15:22:16.365Z,4.28
2018-10-12T15:24:44.763Z,2.40
2018-10-12T15:27:13.194Z,1.70
2018-10-12T15:29:41.281Z,1.10
2018-10-12T15:32:09.800Z,0.80
2018-10-12T15:34:38.264Z,1.10
2018-10-12T15:37:06.782Z,1.45
2018-10-12T15:39:35.206Z,5.37
2018-10-12T15:42:03.685Z,4.80
2018-10-12T15:44:32.157Z,1.52
2018-10-12T15:47:00.606Z,3.33
2018-10-12T15:49:29.292Z,4.58
2018-10-12T15:51:57.835Z,1.47
2018-10-12T15:54:26.271Z,1.05
2018-10-12T15:56:54.437Z,3.25
2018-10-12T15:59:22.805Z,2.30
2018-10-12T16:01:51.731Z,4.55
2018-10-12T16:04:19.812Z,1.98
2018-10-12T16:06:48.335Z,2.52
2018-10-12T16:09:17.078Z,4.55
2018-10-12T16:11:45.273Z,8.68
2018-10-12T16:14:13.906Z,1.80
2018-10-12T16:16:42.350Z,2.37
2018-10-12T16:19:10.764Z,7.28
2018-10-12T16:21:39.221Z,1.72
2018-10-12T16:24:12.492Z,3.90
2018-10-12T16:26:40.993Z,3.58
2018-10-12T16:29:09.506Z,3.17
2018-10-12T16:31:37.880Z,4.90
2018-10-12T16:34:06.495Z,1.72
2018-10-12T16:36:34.640Z,1.20
2018-10-12T16:39:03.602Z,2.10
2018-10-12T16:41:32.708Z,4.62
2018-10-12T16:44:01.150Z,3.10
2018-10-12T16:46:29.609Z,2.20
2018-10-12T16:48:58.052Z,2.10
2018-10-12T16:51:26.441Z,4.33
2018-10-12T16:53:55.693Z,5.90
2018-10-12T16:56:24.183Z,3.10
2018-10-12T16:58:52.621Z,5.30
2018-10-12T17:01:21.009Z,2.25
2018-10-12T17:03:49.457Z,5.37
2018-10-12T17:06:18.071Z,3.92
2018-10-12T17:08:46.529Z,3.60
2018-10-12T17:11:14.905Z,2.77
2018-10-12T17:13:43.320Z,2.12
2018-10-12T17:16:11.427Z,3.55
2018-10-12T17:18:39.848Z,4.30
2018-10-12T17:21:08.285Z,4.90
2018-10-12T17:23:36.708Z,3.02
2018-10-12T17:26:05.159Z,4.12
2018-10-12T17:28:33.627Z,5.10
2018-10-12T17:31:02.028Z,4.10
2018-10-12T17:33:30.453Z,7.17
2018-10-12T17:35:58.920Z,4.97
2018-10-12T17:38:27.334Z,8.03
2018-10-12T17:40:56.031Z,11.05
2018-10-12T17:43:24.637Z,10.80
2018-10-12T17:45:53.209Z,12.03
2018-10-12T17:48:21.336Z,13.53
2018-10-12T17:50:49.733Z,7.85
2018-10-12T17:53:18.219Z,11.63
2018-10-12T17:55:47.024Z,7.30
2018-10-12T17:58:15.524Z,4.70
2018-10-12T18:00:43.638Z,4.47
2018-10-12T18:03:12.173Z,4.62
2018-10-12T18:05:40.805Z,4.28
2018-10-12T18:08:09.235Z,8.13
2018-10-12T18:10:37.682Z,3.37
2018-10-12T18:13:06.137Z,6.80
2018-10-12T18:15:34.255Z,5.35
2018-10-12T18:18:02.705Z,6.80
2018-10-12T18:20:31.144Z,7.62
2018-10-12T18:22:59.565Z,6.92
2018-10-12T18:25:27.711Z,5.25
2018-10-12T18:27:56.183Z,4.47
2018-10-12T18:30:24.584Z,3.25
2018-10-12T18:32:53.051Z,4.25
2018-10-12T18:35:21.453Z,7.58
2018-10-12T18:37:49.564Z,4.35
2018-10-12T18:40:18.037Z,8.03
2018-10-12T18:42:46.568Z,6.55
2018-10-12T18:45:15.028Z,5.58
2018-10-12T18:47:43.512Z,3.50
2018-10-12T18:50:11.959Z,4.12
2018-10-12T18:52:40.376Z,5.55
2018-10-12T18:55:08.888Z,9.55
2018-10-12T18:57:37.668Z,4.15
2018-10-12T19:00:07.442Z,11.28
2018-10-12T19:02:35.771Z,10.90
2018-10-12T19:05:04.448Z,10.43
2018-10-12T19:07:32.949Z,6.15
2018-10-12T19:10:01.451Z,6.47
2018-10-12T19:12:29.927Z,6.92
2018-10-12T19:14:58.470Z,7.85
2018-10-12T19:17:27.118Z,5.25
2018-10-12T19:19:55.988Z,8.15
2018-10-12T19:22:24.435Z,7.50
2018-10-12T19:24:52.925Z,5.58
2018-10-12T19:27:21.393Z,4.25
2018-10-12T19:29:49.860Z,9.35
2018-10-12T19:32:18.300Z,7.10
2018-10-12T19:34:46.781Z,4.60
2018-10-12T19:37:15.315Z,4.62
2018-10-12T19:39:43.438Z,5.08
2018-10-12T19:42:11.845Z,4.47
2018-10-12T19:44:40.271Z,4.40
2018-10-12T19:47:08.401Z,6.85
2018-10-12T19:49:36.853Z,6.33
2018-10-12T19:52:05.313Z,3.52
2018-10-12T19:54:33.479Z,7.55
2018-10-12T19:57:01.928Z,5.15
2018-10-12T19:59:30.411Z,11.35
2018-10-12T20:01:58.835Z,7.00
2018-10-12T20:04:27.486Z,5.92
2018-10-12T20:06:55.624Z,6.00
2018-10-12T20:09:24.073Z,5.95
2018-10-12T20:11:52.508Z,5.33
2018-10-12T20:14:20.941Z,5.12
2018-10-12T20:16:49.395Z,4.60
2018-10-12T20:19:17.871Z,4.37
2018-10-12T20:21:46.385Z,6.25
2018-10-12T20:24:14.566Z,5.87
2018-10-12T20:26:43.949Z,8.65
2018-10-12T20:29:12.360Z,8.53
2018-10-12T20:31:40.895Z,5.35
2018-10-12T20:34:09.244Z,7.17
2018-10-12T20:36:37.719Z,3.72
2018-10-12T20:39:08.223Z,7.67
2018-10-12T20:41:36.761Z,5.95
2018-10-12T20:44:05.177Z,3.70
2018-10-12T20:46:33.976Z,7.92
2018-10-12T20:49:02.393Z,4.87
2018-10-12T20:51:30.828Z,5.78
2018-10-12T20:53:59.244Z,5.85
2018-10-12T20:56:28.296Z,5.72
2018-10-12T20:58:57.100Z,8.78
2018-10-12T21:01:26.138Z,6.85
2018-10-12T21:03:54.569Z,6.60
2018-10-12T21:06:23.248Z,6.25
2018-10-12T21:08:51.672Z,6.12
2018-10-12T21:11:20.128Z,5.78
2018-10-12T21:13:48.537Z,4.45
2018-10-12T21:16:17.006Z,7.70
2018-10-12T21:18:45.457Z,6.00
2018-10-12T21:21:28.440Z,5.80
2018-10-12T21:23:56.878Z,3.77
2018-10-12T21:26:25.353Z,7.47
2018-10-12T21:28:53.919Z,10.28
2018-10-12T21:31:22.389Z,7.22
2018-10-12T21:33:50.858Z,4.95
2018-10-12T21:36:19.349Z,9.25
2018-10-12T21:38:47.807Z,3.85
2018-10-12T21:41:16.242Z,4.45
2018-10-12T21:43:44.668Z,6.05
2018-10-12T21:46:12.799Z,4.30
2018-10-12T21:48:41.204Z,5.97
2018-10-12T21:51:09.621Z,9.13
2018-10-12T21:53:38.184Z,8.40
2018-10-12T21:56:06.624Z,7.00
2018-10-12T21:58:35.025Z,6.25
2018-10-12T22:01:04.156Z,5.03
2018-10-12T22:03:34.242Z,4.58
2018-10-12T22:06:02.685Z,8.53
2018-10-12T22:08:36.512Z,4.37
2018-10-12T22:11:05.693Z,4.95
2018-10-12T22:13:34.396Z,3.75
2018-10-12T22:16:02.553Z,6.20
2018-10-12T22:18:30.986Z,3.75
2018-10-12T22:20:59.441Z,3.27
2018-10-12T22:23:27.882Z,5.17
2018-10-12T22:25:56.603Z,5.85
2018-10-12T22:28:25.124Z,3.58
2018-10-12T22:30:53.254Z,5.00
2018-10-12T22:33:21.666Z,5.78
2018-10-12T22:35:50.147Z,2.83
2018-10-12T22:38:18.582Z,4.78
2018-10-12T22:40:47.047Z,4.80
2018-10-12T22:43:15.488Z,5.45
2018-10-12T22:45:43.898Z,2.80
2018-10-12T22:48:12.605Z,3.87
2018-10-12T22:50:41.065Z,5.47
2018-10-12T22:53:09.508Z,5.45
2018-10-12T22:55:38.015Z,2.72
2018-10-12T22:58:06.454Z,6.05
2018-10-12T23:00:34.883Z,4.35
2018-10-12T23:03:03.521Z,3.60
2018-10-12T23:05:31.887Z,2.52
2018-10-12T23:08:00.316Z,3.83
2018-10-12T23:10:28.715Z,2.67
2018-10-12T23:12:57.145Z,3.85
2018-10-12T23:15:25.389Z,3.20
2018-10-12T23:17:53.884Z,3.40
2018-10-12T23:20:22.278Z,5.67
2018-10-12T23:22:50.728Z,2.75
2018-10-12T23:25:19.156Z,2.70
2018-10-12T23:27:47.281Z,2.55
2018-10-12T23:30:15.691Z,2.90
2018-10-12T23:32:44.125Z,4.72
2018-10-12T23:35:12.246Z,3.12
2018-10-12T23:37:40.678Z,3.47
2018-10-12T23:40:09.153Z,4.70
2018-10-12T23:42:37.647Z,4.10
2018-10-12T23:45:06.329Z,5.42
2018-10-12T23:47:34.742Z,5.22
2018-10-12T23:50:02.877Z,3.22
2018-10-12T23:52:31.311Z,4.00
2018-10-12T23:54:59.732Z,4.17
